Time;durP1;ratioP1;P1;durP2;ratioP2;P2;SDS_P1;SDS_P2;PMS_P1;PMS_P2;Temp;Humidity;BMP_temperature;BMP_pressure;BME280_temperature;BME280_humidity;BME280_pressure;Samples;Min_cycle;Max_cycle;Signal;HPM_P1;HPM_P2
2022/01/23 00:00:45;;;;;;;20.13;13.07;;;;;;;5.62;73.08;100631.59;2618690;54;20054;-71
2022/01/23 00:03:19;;;;;;;20.02;14.40;;;;;;;5.65;73.31;100628.75;2618656;54;20033;-70
2022/01/23 00:05:53;;;;;;;20.67;13.77;;;;;;;5.62;72.96;100628.97;2618684;54;20038;-71
2022/01/23 00:08:24;;;;;;;20.92;13.38;;;;;;;5.59;72.93;100623.13;2619996;54;20034;-71
2022/01/23 00:10:55;;;;;;;21.30;13.48;;;;;;;5.59;73.16;100620.50;2618958;54;20038;-71
2022/01/23 00:13:33;;;;;;;21.35;14.05;;;;;;;5.59;73.72;100612.63;2618679;54;20027;-69
2022/01/23 00:18:45;;;;;;;20.55;13.60;;;;;;;5.61;73.20;100618.63;2618668;54;20038;-70
2022/01/23 00:21:17;;;;;;;21.67;14.20;;;;;;;5.64;72.89;100613.13;2618073;47;20546;-71
2022/01/23 00:32:02;;;;;;;23.63;16.13;;;;;;;5.57;73.30;100618.00;2617410;47;20027;-71
2022/01/23 00:34:33;;;;;;;26.27;16.70;;;;;;;5.53;73.01;100621.81;2618376;39;20439;-70
2022/01/23 00:37:05;;;;;;;27.13;17.58;;;;;;;5.53;73.34;100621.81;2618389;54;20034;-70
2022/01/23 00:39:35;;;;;;;21.52;15.10;;;;;;;5.54;73.57;100625.28;2617894;54;20037;-70
2022/01/23 00:42:05;;;;;;;28.30;18.55;;;;;;;5.57;73.69;100618.00;2618513;54;20049;-70
2022/01/23 00:44:37;;;;;;;21.70;15.23;;;;;;;5.59;73.48;100617.88;2618084;54;20038;-69
2022/01/23 00:47:11;;;;;;;21.95;15.10;;;;;;;5.58;73.33;100616.22;2618547;54;20074;-70
2022/01/23 00:49:41;;;;;;;24.67;15.70;;;;;;;5.58;73.70;100608.34;2618556;54;20133;-70
2022/01/23 00:52:17;;;;;;;21.85;15.93;;;;;;;5.61;73.43;100602.88;2619157;39;20407;-70
2022/01/23 00:54:47;;;;;;;24.15;15.45;;;;;;;5.56;73.48;100595.34;2618522;54;20030;-70
2022/01/23 00:57:16;;;;;;;20.70;15.68;;;;;;;5.45;73.35;100598.78;2618606;54;20030;-70
2022/01/23 00:59:46;;;;;;;23.77;16.33;;;;;;;5.39;73.80;100604.50;2619721;54;20162;-70
2022/01/23 01:02:16;;;;;;;24.40;15.00;;;;;;;5.43;73.66;100611.19;2619477;54;20042;-69
2022/01/23 01:04:46;;;;;;;24.02;16.38;;;;;;;5.50;73.62;100610.72;2620258;54;20677;-70
2022/01/23 01:07:18;;;;;;;22.50;15.15;;;;;;;5.54;73.76;100610.34;2619040;54;20035;-69
2022/01/23 01:09:50;;;;;;;21.40;15.15;;;;;;;5.62;73.66;100600.13;2619823;47;20034;-70
2022/01/23 01:12:26;;;;;;;24.80;15.75;;;;;;;5.66;73.31;100598.09;2621878;54;20046;-70
2022/01/23 01:15:25;;;;;;;22.83;15.25;;;;;;;5.62;73.25;100594.88;2622486;54;20038;-69
2022/01/23 01:31:39;;;;;;;23.23;16.48;;;;;;;5.33;73.26;100598.88;2620265;47;20030;-70
2022/01/23 01:34:14;;;;;;;20.67;15.05;;;;;;;5.28;74.00;100601.84;2618433;54;20625;-69
2022/01/23 01:36:49;;;;;;;22.08;15.57;;;;;;;5.36;74.34;100609.97;2618609;54;20163;-69
2022/01/23 01:39:24;;;;;;;23.73;15.75;;;;;;;5.46;74.23;100620.59;2618246;47;20027;-68
2022/01/23 01:41:55;;;;;;;22.80;14.73;;;;;;;5.50;73.98;100616.78;2622211;47;20026;-69
2022/01/23 01:44:27;;;;;;;26.83;15.80;;;;;;;5.54;73.49;100607.72;2625022;54;20058;-69
2022/01/23 01:47:01;;;;;;;22.40;14.93;;;;;;;5.51;73.88;100612.38;2625100;47;20033;-69
2022/01/23 01:49:36;;;;;;;21.65;15.25;;;;;;;5.50;73.40;100606.28;2624995;54;20029;-69
2022/01/23 01:52:10;;;;;;;22.15;15.40;;;;;;;5.53;73.92;100611.31;2624691;54;20034;-69
2022/01/23 01:54:43;;;;;;;25.70;15.70;;;;;;;5.50;73.63;100611.53;2624353;54;20106;-69
2022/01/23 01:57:17;;;;;;;22.50;16.27;;;;;;;5.49;73.68;100609.88;2623088;47;20029;-70
2022/01/23 02:00:39;;;;;;;23.90;15.23;;;;;;;5.44;73.62;100610.22;2623274;47;20050;-69
2022/01/23 02:08:45;;;;;;;25.02;16.63;;;;;;;5.48;74.03;100595.09;2624427;54;20046;-69
2022/01/23 02:11:23;;;;;;;23.05;17.00;;;;;;;5.50;73.83;100600.22;2623555;54;20035;-69
2022/01/23 02:14:12;;;;;;;22.98;17.13;;;;;;;5.38;73.25;100586.25;2622627;47;20034;-70
2022/01/23 02:17:11;;;;;;;25.25;16.92;;;;;;;5.28;74.02;100578.25;2621105;54;20034;-69
2022/01/23 02:22:53;;;;;;;25.55;16.58;;;;;;;5.33;74.33;100575.28;2619031;47;20035;-69
2022/01/23 02:53:18;;;;;;;27.20;17.75;;;;;;;5.48;73.68;100581.97;2620142;47;20030;-69
2022/01/23 02:55:52;;;;;;;28.48;17.75;;;;;;;5.41;74.12;100586.84;2618401;54;20031;-68
2022/01/23 02:58:24;;;;;;;24.00;15.57;;;;;;;5.39;74.22;100580.06;2620020;31;20502;-70
2022/01/23 03:01:07;;;;;;;26.02;17.00;;;;;;;5.49;74.41;100588.06;2618200;46;20560;-68
2022/01/23 03:03:59;;;;;;;24.90;16.15;;;;;;;5.41;73.67;100592.09;2618018;54;20039;-68
2022/01/23 03:07:08;;;;;;;25.27;16.65;;;;;;;5.28;73.77;100591.34;2619655;54;20039;-69
2022/01/23 03:15:22;;;;;;;28.65;17.77;;;;;;;5.22;74.66;100607.53;2619354;54;20065;-69
2022/01/23 03:31:29;;;;;;;25.55;16.75;;;;;;;4.91;75.64;100611.59;2618210;54;20059;-69
2022/01/23 03:33:59;;;;;;;27.52;17.88;;;;;;;5.04;75.37;100601.03;2618181;54;20031;-70
2022/01/23 03:36:29;;;;;;;24.85;17.05;;;;;;;5.11;75.51;100597.84;2618058;54;20031;-69
2022/01/23 03:38:59;;;;;;;24.75;17.38;;;;;;;5.20;75.70;100605.03;2617907;47;20033;-69
2022/01/23 03:41:28;;;;;;;24.30;17.88;;;;;;;5.20;74.97;100606.81;2617716;47;20041;-70
2022/01/23 03:44:03;;;;;;;23.52;16.80;;;;;;;5.25;75.29;100607.31;2618322;54;20044;-69
2022/01/23 03:46:48;;;;;;;27.77;17.23;;;;;;;5.32;75.25;100598.03;2617396;47;20027;-69
2022/01/23 03:49:34;;;;;;;26.08;17.00;;;;;;;5.39;74.80;100601.88;2617876;54;20034;-68
2022/01/23 03:52:26;;;;;;;28.88;17.05;;;;;;;5.42;74.81;100603.41;2618833;31;20531;-69
2022/01/23 03:54:56;;;;;;;24.70;17.08;;;;;;;5.45;74.71;100596.16;2617863;46;20261;-69
2022/01/23 03:57:26;;;;;;;27.27;18.08;;;;;;;5.44;74.40;100589.25;2617684;47;20573;-69
2022/01/23 03:59:58;;;;;;;27.50;17.45;;;;;;;5.41;74.63;100589.47;2617922;54;20054;-69
2022/01/23 04:02:28;;;;;;;26.65;17.02;;;;;;;5.39;74.33;100586.13;2618057;54;20027;-69
2022/01/23 04:04:58;;;;;;;28.02;17.10;;;;;;;5.41;74.56;100589.47;2617487;46;20049;-68
2022/01/23 04:07:29;;;;;;;26.55;17.55;;;;;;;5.41;74.76;100592.09;2618040;54;20143;-69
2022/01/23 04:09:59;;;;;;;27.02;17.38;;;;;;;5.38;74.63;100592.31;2618029;51;20034;-70
2022/01/23 04:12:41;;;;;;;26.95;17.30;;;;;;;5.43;74.65;100590.22;2618198;39;20454;-69
2022/01/23 04:15:21;;;;;;;29.08;17.08;;;;;;;5.50;74.93;100590.56;2618071;54;20032;-68
2022/01/23 04:18:45;;;;;;;26.80;17.83;;;;;;;5.49;74.64;100588.91;2617724;54;20548;-68
2022/01/23 04:21:16;;;;;;;25.27;16.08;;;;;;;5.51;74.17;100587.00;2618005;54;20054;-69
2022/01/23 04:32:08;;;;;;;23.65;15.90;;;;;;;5.48;74.55;100581.97;2618389;54;20042;-69
2022/01/23 04:34:55;;;;;;;26.35;17.73;;;;;;;5.51;74.61;100588.75;2617689;47;20055;-69
2022/01/23 04:45:38;;;;;;;25.23;16.40;;;;;;;5.46;74.38;100587.31;2617889;47;20030;-69
2022/01/23 05:01:55;;;;;;;26.60;18.23;;;;;;;5.23;74.10;100601.34;2618120;54;20037;-70
2022/01/23 05:04:47;;;;;;;24.38;17.10;;;;;;;5.10;74.73;100600.56;2618395;54;20038;-70
2022/01/23 05:07:46;;;;;;;28.88;17.50;;;;;;;5.16;75.58;100598.34;2617576;47;20057;-70
2022/01/23 05:10:35;;;;;;;25.73;15.80;;;;;;;5.23;75.25;100603.97;2618632;54;20058;-70
2022/01/23 05:13:24;;;;;;;23.05;15.57;;;;;;;5.30;74.92;100613.03;2618246;54;20061;-70
2022/01/23 05:15:54;;;;;;;23.02;17.00;;;;;;;5.34;75.05;100611.03;2617448;54;20045;-71
2022/01/23 05:18:24;;;;;;;25.63;16.35;;;;;;;5.22;74.73;100610.16;2617937;54;20033;-69
2022/01/23 05:21:07;;;;;;;23.75;16.95;;;;;;;5.18;74.99;100612.19;2622387;39;20451;-71
2022/01/23 05:23:37;;;;;;;25.57;16.60;;;;;;;5.08;74.97;100612.97;2626161;54;20034;-69
2022/01/23 05:26:06;;;;;;;22.58;16.02;;;;;;;5.09;75.26;100604.16;2626103;54;20295;-69
2022/01/23 05:28:36;;;;;;;27.27;17.73;;;;;;;5.17;75.39;100605.25;2626323;54;20026;-70
2022/01/23 05:31:06;;;;;;;26.88;17.63;;;;;;;5.18;75.10;100600.84;2626751;39;20466;-69
2022/01/23 05:33:35;;;;;;;25.45;16.98;;;;;;;5.12;75.39;100604.75;2625642;54;20074;-69
2022/01/23 05:36:08;;;;;;;25.73;17.30;;;;;;;5.10;75.11;100608.44;2625819;47;20062;-68
2022/01/23 05:38:38;;;;;;;28.25;17.50;;;;;;;5.09;75.32;100602.34;2625692;47;20106;-70
2022/01/23 05:41:08;;;;;;;24.85;17.60;;;;;;;5.11;75.45;100600.47;2625327;54;20098;-71
2022/01/23 05:43:38;;;;;;;25.05;16.02;;;;;;;5.26;75.66;100606.34;2624687;54;20082;-72
2022/01/23 05:46:07;;;;;;;21.95;15.50;;;;;;;5.31;75.50;100611.28;2624476;54;20122;-70
2022/01/23 05:48:37;;;;;;;24.08;15.70;;;;;;;5.33;75.30;100601.50;2620113;54;20171;-70
2022/01/23 05:51:19;;;;;;;26.92;17.23;;;;;;;5.41;74.90;100605.22;2616968;54;20073;-71
2022/01/23 05:53:57;;;;;;;23.98;17.05;;;;;;;5.43;75.16;100607.72;2618071;47;20055;-69
2022/01/23 05:56:27;;;;;;;24.60;16.42;;;;;;;5.42;74.81;100611.28;2618324;54;20038;-71
2022/01/23 05:59:06;;;;;;;21.25;15.70;;;;;;;5.45;74.90;100625.00;2619041;31;20541;-70
2022/01/23 06:01:40;;;;;;;25.33;16.30;;;;;;;5.39;74.78;100633.34;2617815;54;20550;-68
2022/01/23 06:04:14;;;;;;;23.45;16.52;;;;;;;5.37;74.81;100635.25;2617945;54;20034;-70
2022/01/23 06:06:52;;;;;;;25.85;16.40;;;;;;;5.31;74.18;100638.34;2618056;51;20034;-68
2022/01/23 06:09:23;;;;;;;24.83;16.85;;;;;;;5.13;74.82;100644.91;2618090;47;20034;-68
2022/01/23 06:11:54;;;;;;;24.58;16.50;;;;;;;4.94;75.09;100640.19;2618054;54;20019;-68
2022/01/23 06:14:25;;;;;;;23.55;16.90;;;;;;;4.85;75.57;100644.31;2618575;39;20395;-68
2022/01/23 06:16:55;;;;;;;26.20;17.13;;;;;;;4.90;76.14;100647.44;2617476;54;20147;-69
2022/01/23 06:19:45;;;;;;;23.52;16.10;;;;;;;4.92;75.89;100649.94;2617395;47;20038;-69
2022/01/23 06:22:36;;;;;;;23.50;16.63;;;;;;;4.90;76.00;100652.69;2618454;54;20093;-68
2022/01/23 06:25:38;;;;;;;23.47;15.77;;;;;;;4.91;76.15;100649.13;2618088;46;20054;-70
2022/01/23 06:28:11;;;;;;;20.23;15.05;;;;;;;4.94;76.06;100653.31;2618508;39;20422;-71
2022/01/23 06:30:41;;;;;;;24.77;14.75;;;;;;;4.94;76.02;100658.56;2618986;54;20042;-71
2022/01/23 06:33:11;;;;;;;24.30;16.05;;;;;;;4.95;76.32;100658.44;2618629;54;20122;-70
2022/01/23 06:35:41;;;;;;;21.30;13.65;;;;;;;4.94;76.58;100654.13;2617641;47;20178;-70
2022/01/23 06:38:13;;;;;;;19.30;13.07;;;;;;;5.01;76.30;100653.69;2618272;54;20030;-69
2022/01/23 06:40:43;;;;;;;20.92;14.20;;;;;;;5.06;76.53;100662.03;2618414;54;20046;-69
2022/01/23 06:43:17;;;;;;;21.67;14.32;;;;;;;5.16;76.17;100660.44;2617515;47;20027;-69
2022/01/23 06:45:59;;;;;;;20.00;14.00;;;;;;;5.11;76.16;100663.41;2617374;47;20057;-70
2022/01/23 06:48:30;;;;;;;22.65;14.48;;;;;;;5.11;76.18;100662.56;2617763;39;20611;-71
2022/01/23 06:51:00;;;;;;;20.88;14.60;;;;;;;5.06;75.64;100659.41;2617612;54;20033;-70
2022/01/23 06:53:33;;;;;;;22.02;15.18;;;;;;;5.02;75.87;100661.44;2617475;47;20037;-69
2022/01/23 06:56:03;;;;;;;21.13;14.98;;;;;;;5.00;75.94;100670.38;2617348;46;20022;-70
2022/01/23 06:58:33;;;;;;;23.00;15.50;;;;;;;5.08;76.07;100663.63;2617911;39;20414;-70
2022/01/23 07:01:04;;;;;;;23.98;15.75;;;;;;;5.15;76.29;100664.00;2617758;47;20029;-70
2022/01/23 07:03:52;;;;;;;24.23;16.65;;;;;;;5.14;75.92;100673.66;2618376;54;20062;-71
2022/01/23 07:06:22;;;;;;;21.55;15.20;;;;;;;5.10;75.83;100666.97;2619026;54;20086;-71
2022/01/23 07:09:32;;;;;;;26.60;16.42;;;;;;;5.05;75.64;100669.06;2619578;47;20030;-69
2022/01/23 07:12:30;;;;;;;24.13;16.73;;;;;;;5.01;75.55;100672.03;2619342;39;20450;-71
2022/01/23 07:15:12;;;;;;;27.27;17.35;;;;;;;4.99;75.72;100674.78;2618706;54;20026;-70
2022/01/23 07:17:46;;;;;;;26.42;16.38;;;;;;;5.02;75.28;100684.19;2619274;47;20045;-71
2022/01/23 07:20:25;;;;;;;26.65;18.02;;;;;;;5.08;75.28;100689.81;2618970;54;20039;-69
2022/01/23 07:22:58;;;;;;;22.25;15.68;;;;;;;5.10;74.70;100684.47;2618700;54;20042;-70
2022/01/23 07:25:32;;;;;;;24.30;16.60;;;;;;;5.02;74.69;100686.81;2619062;54;20041;-71
2022/01/23 07:28:03;;;;;;;21.98;15.90;;;;;;;4.96;74.83;100694.16;2617614;47;20058;-70
2022/01/23 07:30:37;;;;;;;28.10;16.85;;;;;;;5.03;75.07;100699.81;2618121;54;20039;-71
2022/01/23 07:33:07;;;;;;;24.90;15.85;;;;;;;5.13;75.13;100699.97;2617477;54;20034;-70
2022/01/23 07:35:37;;;;;;;24.05;15.88;;;;;;;5.21;74.67;100690.59;2617855;39;20454;-70
2022/01/23 07:38:09;;;;;;;22.90;16.00;;;;;;;5.25;74.64;100693.00;2617717;47;20041;-70
2022/01/23 07:40:54;;;;;;;24.73;16.70;;;;;;;5.32;74.67;100697.69;2617637;47;20570;-71
2022/01/23 07:43:35;;;;;;;;;;;;;;;5.31;73.41;100690.78;2617682;54;20055;-71
2022/01/23 07:46:34;;;;;;;24.02;14.05;;;;;;;5.26;73.58;100687.63;2616960;54;19978;-70
2022/01/23 07:49:17;;;;;;;21.55;14.18;;;;;;;5.30;73.44;100693.50;2617605;47;20033;-69
2022/01/23 07:52:05;;;;;;;21.60;16.20;;;;;;;5.36;73.73;100696.50;2618429;54;20037;-70
2022/01/23 07:54:42;;;;;;;23.08;16.13;;;;;;;5.43;73.31;100695.13;2617766;54;20031;-69
2022/01/23 07:57:37;;;;;;;23.60;15.70;;;;;;;5.49;73.14;100699.06;2617852;54;20038;-69
2022/01/23 08:00:33;;;;;;;24.50;16.88;;;;;;;5.50;73.50;100690.25;2620013;39;20422;-69
2022/01/23 08:03:07;;;;;;;23.55;16.75;;;;;;;5.53;73.40;100692.66;2617992;54;20026;-69
2022/01/23 08:05:55;;;;;;;24.98;17.10;;;;;;;5.47;73.30;100701.81;2618628;54;20037;-70
2022/01/23 08:08:48;;;;;;;23.13;16.73;;;;;;;5.42;73.41;100700.47;2618409;54;20034;-71
2022/01/23 08:11:28;;;;;;;25.63;16.05;;;;;;;5.49;74.15;100708.72;2617764;39;20510;-70
2022/01/23 08:14:00;;;;;;;29.35;18.58;;;;;;;5.59;73.50;100707.94;2617989;54;20038;-71
2022/01/23 08:16:30;;;;;;;22.92;15.45;;;;;;;5.56;72.77;100717.81;2617410;54;20034;-70
2022/01/23 08:19:00;;;;;;;22.58;16.08;;;;;;;5.47;72.78;100722.81;2618009;54;20039;-71
2022/01/23 08:21:29;;;;;;;26.50;16.27;;;;;;;5.53;73.26;100718.03;2618116;54;20082;-70
2022/01/23 08:23:59;;;;;;;22.75;16.15;;;;;;;5.63;72.73;100721.66;2617917;54;20042;-70
2022/01/23 08:26:29;;;;;;;22.90;15.48;;;;;;;5.60;72.18;100725.34;2617953;54;20042;-71
2022/01/23 08:29:01;;;;;;;22.58;16.23;;;;;;;5.60;71.92;100721.91;2618653;54;20042;-70
2022/01/23 08:31:31;;;;;;;22.08;15.40;;;;;;;5.61;72.51;100724.41;2619100;54;20046;-70
2022/01/23 08:34:00;;;;;;;22.85;16.08;;;;;;;5.73;72.40;100722.66;2619949;46;20062;-70
2022/01/23 08:36:33;;;;;;;23.08;17.02;;;;;;;5.84;71.73;100727.94;2618944;54;20533;-67
2022/01/23 08:39:03;;;;;;;25.73;17.25;;;;;;;5.81;71.77;100730.78;2619453;39;20473;-69
2022/01/23 08:44:18;;;;;;;20.15;14.10;;;;;;;5.93;71.03;100729.91;2618369;54;20043;-70
2022/01/23 08:46:49;;;;;;;19.17;13.57;;;;;;;5.84;70.45;100729.72;2618095;54;20027;-69
2022/01/23 08:49:20;;;;;;;19.23;13.48;;;;;;;5.75;70.02;100733.03;2618961;54;20034;-70
2022/01/23 08:51:51;;;;;;;21.23;15.05;;;;;;;5.83;70.47;100734.13;2618706;54;20536;-69
2022/01/23 08:54:21;;;;;;;21.25;15.00;;;;;;;5.87;70.07;100727.69;2618677;54;20566;-70
2022/01/23 08:56:51;;;;;;;19.90;15.00;;;;;;;5.95;69.88;100727.97;2617745;54;20029;-70
2022/01/23 08:59:24;;;;;;;20.02;15.23;;;;;;;5.88;69.68;100725.91;2618362;54;20031;-70
2022/01/23 09:01:54;;;;;;;19.20;13.73;;;;;;;5.86;70.13;100733.91;2617813;54;20063;-69
2022/01/23 09:04:24;;;;;;;16.92;13.50;;;;;;;5.93;69.87;100735.16;2618310;54;20034;-71
2022/01/23 09:06:53;;;;;;;16.38;11.30;;;;;;;5.88;68.75;100732.00;2618785;54;20041;-71
2022/01/23 09:09:24;;;;;;;16.08;11.90;;;;;;;5.76;68.47;100727.69;2618737;47;20046;-71
2022/01/23 09:12:00;;;;;;;19.77;14.57;;;;;;;5.76;68.40;100727.69;2618772;54;20076;-70
2022/01/23 09:14:32;;;;;;;21.92;16.45;;;;;;;5.81;69.12;100720.28;2618342;54;20593;-70
2022/01/23 09:17:03;;;;;;;19.73;15.13;;;;;;;5.86;69.07;100722.56;2617601;47;20035;-70
2022/01/23 09:19:33;;;;;;;19.92;14.43;;;;;;;5.88;69.20;100721.50;2618740;39;20459;-70
2022/01/23 09:22:03;;;;;;;21.48;14.27;;;;;;;5.95;69.22;100722.72;2618201;54;20058;-71
2022/01/23 09:24:33;;;;;;;19.30;14.05;;;;;;;6.11;68.94;100726.81;2618365;54;20048;-70
2022/01/23 09:27:06;;;;;;;19.90;14.43;;;;;;;6.24;69.01;100724.09;2618916;54;20027;-70
2022/01/23 09:29:42;;;;;;;22.55;15.38;;;;;;;6.28;68.75;100725.53;2617988;47;20566;-69
2022/01/23 09:32:14;;;;;;;21.30;14.80;;;;;;;6.33;68.19;100728.66;2618316;47;20076;-68
2022/01/23 09:34:44;;;;;;;19.50;14.65;;;;;;;6.38;68.13;100737.84;2618536;54;20554;-70
2022/01/23 09:37:16;;;;;;;21.67;15.10;;;;;;;6.40;68.02;100735.09;2617992;39;20454;-70
2022/01/23 09:39:49;;;;;;;20.00;14.02;;;;;;;6.41;67.94;100732.38;2618725;39;20451;-70
2022/01/23 09:42:23;;;;;;;25.02;14.93;;;;;;;6.38;67.71;100729.13;2618771;39;20454;-70
2022/01/23 09:45:01;;;;;;;24.35;15.93;;;;;;;6.33;67.65;100729.50;2618632;54;20030;-70
2022/01/23 09:47:31;;;;;;;23.42;15.45;;;;;;;6.40;67.19;100728.03;2617968;47;20031;-68
2022/01/23 09:50:03;;;;;;;19.85;14.82;;;;;;;6.33;66.72;100724.25;2619315;54;20605;-69
2022/01/23 09:52:35;;;;;;;24.67;16.08;;;;;;;6.35;67.32;100726.72;2618089;54;20061;-71
2022/01/23 09:55:10;;;;;;;23.02;14.75;;;;;;;6.42;67.42;100725.31;2618149;54;20578;-70
2022/01/23 09:57:42;;;;;;;21.25;14.73;;;;;;;6.49;66.60;100729.16;2618441;54;20090;-69
2022/01/23 10:00:17;;;;;;;19.90;13.85;;;;;;;6.43;66.20;100726.97;2617641;47;20031;-72
2022/01/23 10:02:50;;;;;;;18.38;13.27;;;;;;;6.37;65.95;100735.34;2618010;54;20042;-70
2022/01/23 10:05:21;;;;;;;18.30;12.50;;;;;;;6.32;66.21;100735.69;2617554;54;20041;-68
2022/01/23 10:07:51;;;;;;;21.10;13.55;;;;;;;6.32;65.73;100737.47;2617466;39;20391;-67
2022/01/23 10:10:26;;;;;;;18.70;13.77;;;;;;;6.23;66.17;100736.38;2617080;54;20026;-70
2022/01/23 10:12:58;;;;;;;16.73;13.40;;;;;;;6.27;66.68;100740.44;2617604;54;20038;-70
2022/01/23 10:15:33;;;;;;;20.33;13.57;;;;;;;6.34;66.55;100733.78;2617961;54;20077;-70
2022/01/23 10:18:04;;;;;;;20.58;13.43;;;;;;;6.39;65.83;100729.00;2617285;54;20026;-70
2022/01/23 10:20:33;;;;;;;20.90;15.15;;;;;;;6.33;65.70;100723.41;2618031;54;20034;-68
2022/01/23 10:23:03;;;;;;;21.25;14.90;;;;;;;6.26;65.71;100733.53;2617877;54;20046;-69
2022/01/23 10:25:36;;;;;;;20.58;13.75;;;;;;;6.26;66.18;100725.66;2617725;54;20038;-70
2022/01/23 10:28:08;;;;;;;21.95;14.68;;;;;;;6.41;66.00;100721.03;2616993;47;20058;-69
2022/01/23 10:30:44;;;;;;;21.10;14.68;;;;;;;6.52;65.99;100731.50;2618182;54;20169;-69
2022/01/23 10:33:18;;;;;;;19.30;14.43;;;;;;;6.47;65.36;100727.56;2618063;54;20573;-70
2022/01/23 10:35:57;;;;;;;22.77;14.38;;;;;;;6.53;66.22;100719.19;2617363;54;20045;-69
2022/01/23 10:38:29;;;;;;;19.92;15.45;;;;;;;6.57;66.09;100716.25;2616994;47;20035;-70
2022/01/23 10:41:24;;;;;;;19.75;14.77;;;;;;;6.59;65.31;100710.84;2617905;54;20039;-69
2022/01/23 10:47:30;;;;;;;23.02;14.65;;;;;;;6.61;65.62;100695.78;2618769;39;20452;-68
2022/01/23 10:50:02;;;;;;;18.33;13.98;;;;;;;6.53;64.69;100699.03;2618608;39;20431;-68
2022/01/23 10:52:35;;;;;;;20.15;14.55;;;;;;;6.47;65.33;100699.50;2619094;39;20441;-68
2022/01/23 10:55:06;;;;;;;20.35;14.30;;;;;;;6.53;65.35;100695.56;2619039;39;20437;-69
2022/01/23 10:57:38;;;;;;;21.90;14.65;;;;;;;6.50;65.22;100699.28;2618244;54;20042;-69
2022/01/23 11:00:11;;;;;;;19.55;13.20;;;;;;;6.51;64.61;100698.31;2619239;39;20475;-68
2022/01/23 11:02:45;;;;;;;18.15;13.00;;;;;;;6.54;65.34;100702.50;2618268;47;20086;-69
2022/01/23 11:05:16;;;;;;;20.05;13.60;;;;;;;6.61;64.83;100703.66;2618608;54;20137;-70
2022/01/23 11:07:47;;;;;;;21.75;14.48;;;;;;;6.61;64.66;100695.78;2618199;47;20030;-70
2022/01/23 11:10:20;;;;;;;23.75;14.68;;;;;;;6.64;64.96;100703.44;2618160;47;20030;-68
2022/01/23 11:18:40;;;;;;;28.00;19.38;;;;;;;6.70;65.13;100697.72;2621231;54;20034;-66
2022/01/23 11:21:24;;;;;;;20.58;14.27;;;;;;;6.72;64.41;100695.78;2622968;47;20046;-66
2022/01/23 11:24:15;;;;;;;19.63;13.80;;;;;;;6.72;64.62;100693.16;2623593;47;20035;-66
2022/01/23 11:26:44;;;;;;;19.27;13.60;;;;;;;6.68;64.34;100694.34;2622344;47;20030;-66
2022/01/23 11:29:16;;;;;;;21.52;16.38;;;;;;;6.72;64.57;100693.16;2622177;54;20038;-66
2022/01/23 11:31:47;;;;;;;18.30;14.07;;;;;;;6.74;65.06;100696.50;2622877;54;20034;-67
2022/01/23 11:34:29;;;;;;;27.23;15.43;;;;;;;6.80;64.54;100696.00;2623578;54;20546;-67
2022/01/23 11:36:59;;;;;;;20.33;14.23;;;;;;;6.81;64.44;100696.84;2622476;47;20569;-67
2022/01/23 11:39:39;;;;;;;22.55;14.60;;;;;;;6.81;64.53;100697.69;2623211;46;20027;-68
2022/01/23 11:56:39;;;;;;;15.48;12.52;;;;;;;6.81;63.94;100684.53;2623198;54;20633;-66
2022/01/23 11:59:34;;;;;;;24.08;14.38;;;;;;;6.86;63.48;100671.88;2624892;54;20037;-67
2022/01/23 12:02:35;;;;;;;19.23;12.88;;;;;;;6.81;63.35;100675.81;2625135;47;20090;-66
2022/01/23 12:05:26;;;;;;;16.77;11.95;;;;;;;6.70;63.55;100674.06;2624233;54;20035;-68
2022/01/23 12:08:34;;;;;;;18.33;12.98;;;;;;;6.68;63.85;100663.66;2627438;39;20473;-65
2022/01/23 12:17:15;;;;;;;20.10;13.10;;;;;;;6.82;62.90;100659.09;2620498;54;20208;-68
2022/01/23 12:35:56;;;;;;;25.67;15.95;;;;;;;6.78;63.01;100648.00;2610519;46;20038;-64
2022/01/23 12:38:35;;;;;;;22.98;15.05;;;;;;;6.78;63.26;100637.47;2621259;54;20035;-64
2022/01/23 12:41:32;;;;;;;21.10;15.20;;;;;;;6.87;63.38;100631.47;2621882;54;20026;-63
2022/01/23 12:44:05;;;;;;;21.52;13.75;;;;;;;6.92;63.05;100639.00;2621463;54;20102;-65
2022/01/23 12:46:38;;;;;;;19.33;14.03;;;;;;;6.91;62.87;100627.63;2620574;54;20059;-65
2022/01/23 12:49:21;;;;;;;21.35;14.93;;;;;;;6.94;62.90;100623.94;2620042;54;20078;-64
2022/01/23 12:51:55;;;;;;;25.45;17.52;;;;;;;6.93;62.65;100617.00;2619622;39;20450;-64
2022/01/23 12:54:34;;;;;;;33.47;19.88;;;;;;;6.95;62.32;100617.72;2618442;54;20030;-65
2022/01/23 12:57:14;;;;;;;21.08;14.38;;;;;;;6.90;62.02;100617.25;2618612;54;20038;-64
2022/01/23 12:59:44;;;;;;;18.98;12.75;;;;;;;6.85;61.89;100616.78;2618881;39;20406;-65
2022/01/23 13:02:18;;;;;;;19.40;13.55;;;;;;;6.81;62.21;100613.56;2618607;54;20031;-64
2022/01/23 13:04:54;;;;;;;23.35;14.57;;;;;;;6.72;62.39;100609.03;2617401;47;20046;-65
2022/01/23 13:07:39;;;;;;;20.27;13.68;;;;;;;6.72;62.31;100614.31;2618124;54;20057;-65
2022/01/23 13:10:26;;;;;;;20.05;13.10;;;;;;;6.68;62.37;100613.72;2618450;54;20034;-63
2022/01/23 13:13:07;;;;;;;19.50;12.68;;;;;;;6.68;63.11;100615.50;2618406;54;20031;-65
2022/01/23 13:16:13;;;;;;;17.98;12.07;;;;;;;6.65;62.62;100619.25;2617701;54;20534;-65
2022/01/23 13:18:51;;;;;;;18.88;13.02;;;;;;;6.67;62.64;100617.31;2618822;39;20434;-64
2022/01/23 13:27:23;;;;;;;18.83;12.95;;;;;;;6.61;62.39;100614.31;2618219;54;20589;-65
2022/01/23 13:30:00;;;;;;;15.30;11.88;;;;;;;6.61;62.41;100609.06;2617868;54;20043;-64
2022/01/23 13:32:39;;;;;;;19.98;12.65;;;;;;;6.53;62.84;100612.34;2617557;51;20034;-64
2022/01/23 13:35:13;;;;;;;18.75;12.70;;;;;;;6.51;63.21;100598.47;2618048;54;20046;-65
2022/01/23 13:37:45;;;;;;;18.20;12.27;;;;;;;6.55;63.32;100604.31;2618788;31;20539;-66
2022/01/23 13:40:23;;;;;;;16.92;11.77;;;;;;;6.56;62.78;100596.31;2618178;54;20042;-65
2022/01/23 13:47:56;;;;;;;18.13;12.27;;;;;;;6.61;62.80;100602.06;2618089;54;20042;-65
2022/01/23 13:51:57;;;;;;;13.30;9.80;;;;;;;6.55;61.36;100610.41;2617881;54;20031;-64
2022/01/23 14:00:01;;;;;;;18.63;12.10;;;;;;;6.61;61.46;100602.06;2617326;54;20045;-64
2022/01/23 14:02:34;;;;;;;16.65;12.60;;;;;;;6.68;62.01;100603.19;2617926;54;20031;-64
2022/01/23 14:05:11;;;;;;;33.17;19.98;;;;;;;6.77;62.24;100601.63;2617579;54;20174;-64
2022/01/23 14:07:42;;;;;;;16.83;11.95;;;;;;;6.81;61.44;100594.31;2617679;54;20027;-65
2022/01/23 14:10:16;;;;;;;16.35;11.90;;;;;;;6.75;61.45;100597.47;2617285;47;20061;-64
2022/01/23 14:12:49;;;;;;;16.45;12.23;;;;;;;6.70;61.05;100596.03;2617249;47;20053;-64
2022/01/23 14:15:22;;;;;;;19.30;12.85;;;;;;;6.66;61.44;100599.88;2617770;54;20042;-64
2022/01/23 14:18:05;;;;;;;20.75;13.70;;;;;;;6.65;61.59;100602.59;2618551;54;20046;-64
2022/01/23 14:20:38;;;;;;;14.77;11.27;;;;;;;6.62;61.08;100595.81;2618634;54;20026;-63
2022/01/23 14:23:16;;;;;;;17.33;11.93;;;;;;;6.64;61.03;100593.91;2618687;54;20037;-64
2022/01/23 14:25:48;;;;;;;16.05;11.25;;;;;;;6.65;60.97;100599.97;2618726;54;20034;-65
2022/01/23 14:28:22;;;;;;;16.45;11.95;;;;;;;6.61;60.44;100599.41;2618620;54;20541;-65
2022/01/23 14:30:55;;;;;;;16.83;12.07;;;;;;;6.60;60.56;100599.53;2618481;54;20039;-65
2022/01/23 14:33:30;;;;;;;16.20;10.80;;;;;;;6.57;60.73;100592.75;2618784;54;20035;-64
2022/01/23 14:36:19;;;;;;;18.00;12.75;;;;;;;6.62;60.58;100595.81;2618357;54;20042;-63
2022/01/23 14:38:59;;;;;;;17.45;12.82;;;;;;;6.61;61.00;100595.94;2618468;54;20633;-64
2022/01/23 14:41:31;;;;;;;17.35;12.57;;;;;;;6.61;60.28;100598.56;2618099;54;20034;-64
2022/01/23 14:44:16;;;;;;;14.75;10.75;;;;;;;6.50;60.47;100598.59;2617528;54;20558;-67
2022/01/23 14:46:48;;;;;;;14.82;10.88;;;;;;;6.51;60.08;100595.00;2618774;54;20534;-67
2022/01/23 14:49:22;;;;;;;17.85;12.35;;;;;;;6.47;59.99;100594.41;2619249;54;20034;-65
2022/01/23 14:51:53;;;;;;;15.38;11.55;;;;;;;6.45;60.67;100591.94;2618695;54;20030;-65
2022/01/23 14:54:29;;;;;;;15.55;11.45;;;;;;;6.40;60.43;100601.09;2618397;54;20043;-64